createdAt,value
2022-10-17T00:00:18.135Z,16.27
2022-10-17T00:02:44.646Z,17.33
2022-10-17T00:05:12.148Z,17.52
2022-10-17T00:07:39.207Z,17.52
2022-10-17T00:10:07.299Z,19.55
2022-10-17T00:12:34.601Z,19.00
2022-10-17T00:15:03.963Z,24.08
2022-10-17T00:17:31.541Z,21.13
2022-10-17T00:20:01.661Z,18.63
2022-10-17T00:22:28.499Z,22.25
2022-10-17T00:24:55.072Z,19.52
2022-10-17T00:27:21.624Z,16.50
2022-10-17T00:29:49.917Z,21.88
2022-10-17T00:32:16.917Z,22.67
2022-10-17T00:34:43.671Z,18.35
2022-10-17T00:37:10.515Z,21.05
2022-10-17T00:39:37.176Z,20.02
2022-10-17T00:42:03.957Z,20.15
2022-10-17T00:44:30.588Z,20.20
2022-10-17T00:46:59.231Z,21.23
2022-10-17T00:49:28.747Z,22.40
2022-10-17T00:51:59.261Z,21.23
2022-10-17T00:54:33.539Z,21.17
2022-10-17T00:57:00.732Z,18.70
2022-10-17T00:59:28.547Z,19.50
2022-10-17T01:02:06.609Z,20.25
2022-10-17T01:04:33.141Z,20.67
2022-10-17T01:06:59.685Z,20.27
2022-10-17T01:09:27.297Z,20.55
2022-10-17T01:12:03.752Z,17.75
2022-10-17T01:14:40.602Z,20.52
2022-10-17T01:17:34.089Z,19.20
2022-10-17T01:20:19.547Z,18.65
2022-10-17T01:23:01.072Z,19.15
2022-10-17T01:25:49.121Z,19.42
2022-10-17T01:28:54.435Z,18.80
2022-10-17T01:31:25.864Z,19.02
2022-10-17T01:34:17.107Z,22.60
2022-10-17T01:36:52.221Z,20.42
2022-10-17T01:39:32.528Z,21.60
2022-10-17T01:42:27.864Z,21.05
2022-10-17T01:44:57.524Z,19.10
2022-10-17T01:47:29.610Z,23.52
2022-10-17T01:50:02.840Z,21.25
2022-10-17T01:52:37.001Z,24.45
2022-10-17T01:55:09.551Z,18.48
2022-10-17T01:57:40.881Z,22.02
2022-10-17T02:00:13.721Z,20.77
2022-10-17T02:02:43.296Z,19.55
2022-10-17T02:05:10.226Z,21.38
2022-10-17T02:07:36.797Z,22.35
2022-10-17T02:10:09.951Z,23.83
2022-10-17T02:12:54.297Z,19.45
2022-10-17T02:15:32.459Z,19.75
2022-10-17T02:18:14.187Z,22.75
2022-10-17T02:20:52.028Z,22.02
2022-10-17T02:23:30.481Z,22.95
2022-10-17T02:26:16.642Z,21.17
2022-10-17T02:28:47.500Z,21.23
2022-10-17T02:31:20.158Z,21.38
2022-10-17T02:33:54.679Z,20.65
2022-10-17T02:36:26.592Z,19.27
2022-10-17T02:38:55.198Z,20.10
2022-10-17T02:41:24.521Z,18.75
2022-10-17T02:43:53.086Z,21.17
2022-10-17T02:46:23.115Z,24.42
2022-10-17T02:49:22.001Z,21.95
2022-10-17T02:52:12.985Z,22.23
2022-10-17T02:54:51.298Z,20.50
2022-10-17T02:57:25.103Z,21.30
2022-10-17T02:59:52.407Z,20.33
2022-10-17T03:02:19.091Z,21.85
2022-10-17T03:04:47.244Z,19.90
2022-10-17T03:07:13.801Z,19.55
2022-10-17T03:09:40.470Z,23.27
2022-10-17T03:12:06.974Z,22.55
2022-10-17T03:14:33.540Z,23.15
2022-10-17T03:17:00.171Z,22.98
2022-10-17T03:19:26.683Z,18.85
2022-10-17T03:21:53.438Z,20.85
2022-10-17T03:24:19.965Z,19.73
2022-10-17T03:29:17.932Z,18.00
2022-10-17T03:31:44.488Z,17.95
2022-10-17T03:34:11.060Z,18.58
2022-10-17T03:36:37.647Z,18.63
2022-10-17T03:39:04.257Z,19.92
2022-10-17T03:41:30.781Z,16.88
2022-10-17T03:43:57.298Z,19.95
2022-10-17T03:46:23.852Z,18.77
2022-10-17T03:48:50.410Z,22.48
2022-10-17T03:51:16.975Z,20.85
2022-10-17T03:53:43.484Z,21.90
2022-10-17T03:56:22.066Z,24.15
2022-10-17T03:58:48.894Z,24.90
2022-10-17T04:01:17.142Z,21.63
2022-10-17T04:03:44.311Z,25.10
2022-10-17T04:06:12.784Z,17.10
2022-10-17T04:08:39.963Z,19.13
2022-10-17T04:11:08.450Z,20.42
2022-10-17T04:13:35.827Z,18.70
2022-10-17T04:16:05.273Z,18.50
2022-10-17T04:18:32.365Z,17.52
2022-10-17T04:21:01.798Z,18.27
2022-10-17T04:23:28.460Z,18.00
2022-10-17T04:25:59.309Z,18.60
2022-10-17T04:28:27.590Z,19.65
2022-10-17T04:31:11.922Z,21.00
2022-10-17T04:33:38.808Z,18.52
2022-10-17T04:36:08.350Z,19.08
2022-10-17T04:38:34.951Z,18.17
2022-10-17T04:41:03.678Z,18.02
2022-10-17T04:43:31.568Z,18.73
2022-10-17T04:46:02.499Z,18.48
2022-10-17T04:48:29.814Z,18.55
2022-10-17T04:51:02.036Z,18.27
2022-10-17T04:53:30.563Z,19.40
2022-10-17T04:55:57.371Z,17.00
2022-10-17T04:58:24.536Z,19.05
2022-10-17T05:00:51.192Z,18.95
2022-10-17T05:03:17.859Z,19.00
2022-10-17T05:05:44.411Z,16.00
2022-10-17T05:08:11.765Z,17.45
2022-10-17T05:10:39.769Z,17.10
2022-10-17T05:13:07.276Z,18.80
2022-10-17T05:15:34.163Z,16.35
2022-10-17T05:18:00.863Z,19.25
2022-10-17T05:20:27.799Z,18.33
2022-10-17T05:22:54.616Z,17.42
2022-10-17T05:25:21.863Z,16.15
2022-10-17T05:27:48.437Z,16.30
2022-10-17T05:30:14.967Z,19.90
2022-10-17T05:32:41.597Z,16.55
2022-10-17T05:35:08.271Z,16.45
2022-10-17T05:37:34.921Z,17.13
2022-10-17T05:40:01.748Z,17.98
2022-10-17T05:42:28.743Z,17.75
2022-10-17T05:44:55.473Z,17.58
2022-10-17T05:47:22.064Z,16.63
2022-10-17T05:49:52.337Z,16.73
2022-10-17T05:52:19.286Z,14.90
2022-10-17T05:54:45.960Z,14.57
2022-10-17T05:57:12.687Z,16.10
2022-10-17T05:59:39.253Z,16.60
2022-10-17T06:02:05.984Z,15.70
2022-10-17T06:04:32.694Z,17.23
2022-10-17T06:06:59.223Z,15.38
2022-10-17T06:09:25.743Z,14.50
2022-10-17T06:11:52.420Z,15.32
2022-10-17T06:14:18.929Z,16.98
2022-10-17T06:16:45.476Z,17.52
2022-10-17T06:19:12.096Z,14.85
2022-10-17T06:21:39.163Z,14.50
2022-10-17T06:24:06.085Z,16.15
2022-10-17T06:26:32.699Z,16.85
2022-10-17T06:28:59.300Z,16.30
2022-10-17T06:31:25.895Z,15.30
2022-10-17T06:33:52.478Z,16.50
2022-10-17T06:36:19.322Z,16.17
2022-10-17T06:38:46.062Z,15.50
2022-10-17T06:41:14.689Z,16.13
2022-10-17T06:43:48.564Z,17.35
2022-10-17T06:46:17.781Z,14.35
2022-10-17T06:48:44.859Z,15.57
2022-10-17T06:51:12.540Z,15.63
2022-10-17T06:53:40.504Z,13.93
2022-10-17T06:56:08.476Z,16.60
2022-10-17T06:58:39.076Z,14.95
2022-10-17T07:03:36.458Z,14.15
2022-10-17T07:06:03.476Z,15.73
2022-10-17T07:08:30.020Z,16.20
2022-10-17T07:10:57.300Z,13.98
2022-10-17T07:13:24.328Z,16.40
2022-10-17T07:15:51.087Z,16.25
2022-10-17T07:18:17.679Z,17.67
2022-10-17T07:20:44.201Z,16.40
2022-10-17T07:23:10.702Z,16.23
2022-10-17T07:25:40.041Z,15.70
2022-10-17T07:28:06.916Z,16.08
2022-10-17T07:30:33.470Z,14.20
2022-10-17T07:33:00.246Z,16.05
2022-10-17T07:35:26.800Z,17.00
2022-10-17T07:37:53.378Z,17.67
2022-10-17T07:40:20.045Z,15.63
2022-10-17T07:42:46.728Z,15.25
2022-10-17T07:45:13.386Z,16.08
2022-10-17T07:47:39.913Z,17.80
2022-10-17T07:50:06.834Z,17.40
2022-10-17T07:52:33.401Z,15.73
2022-10-17T07:55:00.170Z,15.05
2022-10-17T07:57:26.731Z,17.08
2022-10-17T07:59:54.506Z,16.05
2022-10-17T08:02:25.858Z,16.65
2022-10-17T08:04:53.160Z,16.88
2022-10-17T08:07:24.090Z,16.60
2022-10-17T08:09:53.567Z,16.75
2022-10-17T08:12:20.459Z,16.80
2022-10-17T08:14:48.159Z,18.88
2022-10-17T08:17:14.764Z,17.70
2022-10-17T08:19:41.375Z,15.32
2022-10-17T08:22:08.403Z,20.15
2022-10-17T08:24:35.007Z,20.90
2022-10-17T08:27:01.793Z,18.27
2022-10-17T08:29:28.471Z,20.00
2022-10-17T08:32:00.893Z,21.38
2022-10-17T08:34:28.569Z,20.23
2022-10-17T08:36:55.191Z,20.38
2022-10-17T08:39:21.998Z,20.02
2022-10-17T08:42:16.416Z,20.67
2022-10-17T08:44:57.693Z,19.25
2022-10-17T08:47:29.413Z,18.58
2022-10-17T08:50:03.192Z,19.08
2022-10-17T08:52:38.005Z,20.65
2022-10-17T08:55:13.431Z,19.15
2022-10-17T08:57:41.204Z,20.02
2022-10-17T09:00:17.112Z,18.67
2022-10-17T09:03:09.693Z,19.15
2022-10-17T09:05:45.632Z,20.35
2022-10-17T09:08:41.931Z,16.33
2022-10-17T09:11:34.182Z,18.02
2022-10-17T09:14:27.396Z,18.00
2022-10-17T09:17:15.611Z,14.20
2022-10-17T09:19:52.886Z,16.65
2022-10-17T09:22:24.898Z,16.27
2022-10-17T09:24:57.298Z,14.02
2022-10-17T09:27:28.150Z,14.93
2022-10-17T09:30:26.832Z,15.55
2022-10-17T09:33:00.656Z,13.73
2022-10-17T09:35:28.453Z,13.77
2022-10-17T09:37:55.237Z,13.98
2022-10-17T09:40:27.586Z,14.43
2022-10-17T09:42:54.181Z,14.57
2022-10-17T09:45:30.726Z,13.13
2022-10-17T09:48:09.129Z,14.25
2022-10-17T09:50:36.471Z,12.60
2022-10-17T09:53:29.461Z,12.55
2022-10-17T09:56:02.944Z,13.23
2022-10-17T09:58:50.842Z,12.77
2022-10-17T10:01:24.497Z,11.98
2022-10-17T10:04:11.665Z,12.88
2022-10-17T10:06:40.417Z,13.52
2022-10-17T10:11:56.693Z,12.38
2022-10-17T10:14:35.860Z,12.15
2022-10-17T10:17:05.091Z,12.85
2022-10-17T10:19:33.802Z,12.45
2022-10-17T10:22:02.874Z,11.07
2022-10-17T10:24:31.207Z,11.75
2022-10-17T10:27:01.564Z,12.25
2022-10-17T10:29:34.255Z,11.70
2022-10-17T10:32:11.790Z,11.40
2022-10-17T10:34:47.569Z,11.25
2022-10-17T10:37:28.542Z,11.32
2022-10-17T10:39:58.519Z,11.23
2022-10-17T10:42:32.457Z,10.27
2022-10-17T10:45:43.249Z,9.68
2022-10-17T10:48:30.759Z,10.45
2022-10-17T10:51:06.359Z,10.77
2022-10-17T10:54:05.677Z,10.32
2022-10-17T10:56:43.773Z,10.10
2022-10-17T10:59:14.165Z,10.68
2022-10-17T11:01:43.716Z,11.25
2022-10-17T11:05:07.870Z,9.73
2022-10-17T11:08:03.512Z,10.05
2022-10-17T11:10:51.201Z,10.43
2022-10-17T11:13:26.470Z,10.07
2022-10-17T11:16:22.499Z,10.00
2022-10-17T11:18:53.436Z,9.00
2022-10-17T11:21:38.557Z,9.55
2022-10-17T11:24:25.784Z,9.60
2022-10-17T11:27:04.195Z,9.70
2022-10-17T11:29:35.216Z,9.88
2022-10-17T11:32:17.908Z,9.25
2022-10-17T11:34:48.676Z,9.07
2022-10-17T11:37:21.931Z,10.05
2022-10-17T11:40:06.351Z,9.90
2022-10-17T11:42:48.277Z,10.05
2022-10-17T11:45:19.814Z,10.10
2022-10-17T11:47:51.707Z,9.35
2022-10-17T11:53:29.071Z,8.18
2022-10-17T11:56:00.007Z,8.85
2022-10-17T11:58:37.643Z,9.02
2022-10-17T12:01:21.538Z,8.27
2022-10-17T12:04:14.018Z,9.00
2022-10-17T12:07:01.138Z,8.88
2022-10-17T12:09:56.943Z,8.02
2022-10-17T12:12:27.201Z,8.40
2022-10-17T12:14:54.706Z,8.77
2022-10-17T12:17:39.691Z,7.78
2022-10-17T12:20:24.304Z,9.00
2022-10-17T12:22:56.646Z,7.85
2022-10-17T12:25:29.943Z,8.93
2022-10-17T12:28:09.739Z,7.97
2022-10-17T12:30:36.400Z,8.13
2022-10-17T12:33:23.823Z,8.68
2022-10-17T12:36:11.415Z,8.00
2022-10-17T12:38:38.071Z,8.10
2022-10-17T12:41:05.861Z,8.02
2022-10-17T12:43:38.952Z,7.72
2022-10-17T12:46:08.489Z,7.38
2022-10-17T12:48:35.698Z,7.80
2022-10-17T12:54:08.319Z,7.15
2022-10-17T12:56:36.722Z,7.95
2022-10-17T12:59:12.091Z,7.18
2022-10-17T13:01:40.599Z,7.80
2022-10-17T13:04:10.705Z,7.55
2022-10-17T13:06:44.923Z,7.28
2022-10-17T13:09:28.703Z,7.25
2022-10-17T13:11:58.261Z,8.25
2022-10-17T13:14:26.714Z,7.95
2022-10-17T13:17:01.840Z,6.72
2022-10-17T13:19:39.859Z,6.80
2022-10-17T13:22:17.926Z,6.95
2022-10-17T13:24:44.979Z,7.07
2022-10-17T13:27:29.736Z,7.07
2022-10-17T13:29:58.080Z,7.43
2022-10-17T13:32:27.150Z,6.53
2022-10-17T13:35:11.969Z,7.63
2022-10-17T13:37:41.335Z,6.70
2022-10-17T13:40:40.758Z,7.05
2022-10-17T13:43:04.194Z,6.18
2022-10-17T13:45:34.010Z,6.45
2022-10-17T13:48:03.938Z,6.43
2022-10-17T13:50:44.250Z,6.25
2022-10-17T13:53:21.288Z,6.40
2022-10-17T13:56:26.920Z,6.80
2022-10-17T13:58:51.999Z,6.38
2022-10-17T14:01:20.393Z,6.57
2022-10-17T14:03:51.756Z,6.82
2022-10-17T14:06:25.764Z,6.70
2022-10-17T14:08:52.296Z,7.00
2022-10-17T14:11:41.558Z,6.30
2022-10-17T14:14:20.578Z,6.18
2022-10-17T14:16:47.363Z,6.50
2022-10-17T14:19:36.028Z,6.10
2022-10-17T14:22:21.019Z,5.72
2022-10-17T14:24:48.724Z,6.10
2022-10-17T14:27:52.546Z,6.50
2022-10-17T14:30:55.301Z,6.40
2022-10-17T14:33:27.583Z,6.70
2022-10-17T14:36:01.222Z,6.25
2022-10-17T14:38:29.603Z,6.15
2022-10-17T14:41:41.411Z,5.72
2022-10-17T14:44:15.562Z,6.18
2022-10-17T14:46:49.707Z,6.00
2022-10-17T14:49:24.689Z,6.03
2022-10-17T14:52:18.867Z,5.63
2022-10-17T14:57:29.340Z,4.97
2022-10-17T14:59:57.151Z,6.28
2022-10-17T15:02:26.106Z,5.88
2022-10-17T15:04:53.587Z,6.00
2022-10-17T15:07:24.074Z,5.95
2022-10-17T15:09:52.762Z,5.55
2022-10-17T15:12:22.217Z,6.05
2022-10-17T15:14:49.142Z,5.00
2022-10-17T15:17:22.390Z,5.80
2022-10-17T15:22:18.388Z,5.72
2022-10-17T15:24:47.981Z,5.35
2022-10-17T15:27:21.649Z,5.57
2022-10-17T15:29:49.175Z,5.32
2022-10-17T15:32:16.206Z,4.95
2022-10-17T15:34:42.772Z,5.32
2022-10-17T15:37:18.494Z,4.40
2022-10-17T15:39:46.846Z,5.07
2022-10-17T15:42:13.365Z,4.82
2022-10-17T15:44:43.841Z,5.43
2022-10-17T15:47:22.583Z,4.93
2022-10-17T15:49:49.275Z,4.13
2022-10-17T15:52:16.242Z,4.28
2022-10-17T15:54:42.810Z,4.40
2022-10-17T15:57:18.625Z,4.68
2022-10-17T15:59:47.196Z,4.68
2022-10-17T16:02:18.582Z,4.68
2022-10-17T16:04:45.282Z,5.07
2022-10-17T16:07:12.074Z,4.85
2022-10-17T16:09:38.919Z,4.50
2022-10-17T16:12:07.380Z,4.50
2022-10-17T16:14:34.316Z,4.30
2022-10-17T16:17:01.233Z,4.72
2022-10-17T16:19:29.952Z,4.05
2022-10-17T16:22:04.342Z,4.18
2022-10-17T16:24:31.264Z,3.85
2022-10-17T16:26:57.987Z,4.55
2022-10-17T16:29:24.522Z,4.07
2022-10-17T16:31:51.089Z,4.10
2022-10-17T16:34:17.693Z,3.60
2022-10-17T16:36:44.322Z,4.47
2022-10-17T16:39:11.016Z,3.78
2022-10-17T16:41:39.288Z,3.78
2022-10-17T16:44:11.260Z,4.18
2022-10-17T16:46:38.073Z,4.55
2022-10-17T16:49:05.965Z,4.63
2022-10-17T16:51:35.974Z,3.85
2022-10-17T16:54:04.519Z,4.30
2022-10-17T16:56:32.714Z,4.72
2022-10-17T16:59:00.781Z,4.07
2022-10-17T17:01:29.395Z,4.00
2022-10-17T17:03:56.809Z,3.90
2022-10-17T17:06:26.895Z,4.57
2022-10-17T17:08:54.617Z,4.00
2022-10-17T17:11:24.517Z,4.18
2022-10-17T17:13:51.119Z,3.90
2022-10-17T17:16:23.359Z,4.43
2022-10-17T17:18:54.575Z,4.05
2022-10-17T17:21:21.072Z,4.63
2022-10-17T17:23:47.940Z,4.57
2022-10-17T17:26:17.395Z,4.13
2022-10-17T17:28:44.272Z,4.55
2022-10-17T17:31:14.137Z,4.00
2022-10-17T17:33:42.030Z,4.80
2022-10-17T17:36:12.273Z,3.83
2022-10-17T17:38:41.210Z,4.10
2022-10-17T17:41:07.732Z,4.60
2022-10-17T17:43:35.776Z,4.70
2022-10-17T17:46:05.028Z,4.70
2022-10-17T17:48:31.690Z,4.03
2022-10-17T17:51:02.704Z,4.72
2022-10-17T17:53:29.302Z,4.00
2022-10-17T17:56:10.976Z,4.28
2022-10-17T17:58:37.635Z,4.93
2022-10-17T18:01:14.353Z,5.28
2022-10-17T18:03:41.790Z,4.75
2022-10-17T18:06:08.993Z,4.07
2022-10-17T18:08:36.067Z,4.97
2022-10-17T18:11:03.331Z,4.50
2022-10-17T18:13:30.079Z,4.45
2022-10-17T18:16:01.413Z,5.45
2022-10-17T18:18:29.823Z,4.97
2022-10-17T18:20:56.687Z,5.10
2022-10-17T18:23:23.929Z,5.18
2022-10-17T18:25:58.716Z,4.65
2022-10-17T18:28:25.434Z,5.07
2022-10-17T18:30:52.216Z,4.30
2022-10-17T18:33:18.863Z,4.65
2022-10-17T18:35:45.797Z,4.78
2022-10-17T18:38:12.496Z,4.90
2022-10-17T18:40:39.018Z,4.65
2022-10-17T18:43:05.556Z,4.47
2022-10-17T18:45:32.164Z,4.95
2022-10-17T18:47:58.867Z,5.07
2022-10-17T18:50:25.829Z,4.90
2022-10-17T18:52:52.346Z,4.93
2022-10-17T18:55:19.793Z,4.97
2022-10-17T18:57:50.068Z,3.83
2022-10-17T19:00:17.773Z,5.13
2022-10-17T19:02:44.502Z,4.93
2022-10-17T19:05:11.067Z,5.60
2022-10-17T19:07:37.582Z,4.53
2022-10-17T19:10:04.328Z,4.85
2022-10-17T19:12:31.011Z,4.75
2022-10-17T19:14:57.569Z,5.10
2022-10-17T19:17:24.056Z,4.45
2022-10-17T19:19:52.308Z,5.05
2022-10-17T19:22:19.030Z,5.35
2022-10-17T19:24:45.566Z,4.85
2022-10-17T19:27:12.425Z,4.88
2022-10-17T19:29:43.463Z,4.97
2022-10-17T19:32:15.705Z,5.35
2022-10-17T19:34:44.719Z,4.55
2022-10-17T19:37:11.282Z,4.88
2022-10-17T19:39:37.877Z,5.00
2022-10-17T19:42:06.862Z,5.25
2022-10-17T19:44:34.291Z,5.75
2022-10-17T19:47:00.861Z,5.68
2022-10-17T19:49:27.446Z,6.28
2022-10-17T19:51:54.004Z,6.07
2022-10-17T19:54:20.513Z,5.32
2022-10-17T19:56:47.535Z,5.45
2022-10-17T19:59:15.931Z,4.82
2022-10-17T20:01:43.391Z,5.93
2022-10-17T20:04:11.135Z,5.43
2022-10-17T20:06:39.079Z,5.07
2022-10-17T20:09:07.334Z,5.07
2022-10-17T20:11:35.553Z,4.15
2022-10-17T20:14:02.359Z,5.10
2022-10-17T20:16:33.916Z,4.90
2022-10-17T20:19:07.492Z,5.35
2022-10-17T20:24:07.023Z,5.00
2022-10-17T20:26:39.025Z,5.03
2022-10-17T20:29:18.422Z,4.95
2022-10-17T20:31:46.368Z,4.47
2022-10-17T20:34:15.452Z,5.03
2022-10-17T20:36:42.496Z,5.07
2022-10-17T20:39:11.242Z,4.68
2022-10-17T20:41:37.909Z,4.80
2022-10-17T20:44:04.798Z,4.40
2022-10-17T20:46:44.822Z,4.25
2022-10-17T20:51:43.842Z,4.28
2022-10-17T20:54:11.680Z,4.60
2022-10-17T20:56:39.101Z,4.18
2022-10-17T20:59:11.003Z,4.30
2022-10-17T21:01:37.612Z,5.57
2022-10-17T21:06:52.218Z,4.80
2022-10-17T21:09:19.398Z,4.57
2022-10-17T21:11:46.041Z,3.45
2022-10-17T21:14:12.706Z,4.00
2022-10-17T21:16:40.282Z,4.03
2022-10-17T21:19:07.128Z,4.25
2022-10-17T21:21:36.241Z,4.10
2022-10-17T21:24:05.737Z,3.60
2022-10-17T21:26:34.235Z,4.07
2022-10-17T21:29:05.474Z,4.03
2022-10-17T21:31:33.774Z,3.75
2022-10-17T21:34:04.998Z,3.78
2022-10-17T21:36:31.527Z,3.58
2022-10-17T21:38:58.436Z,4.07
2022-10-17T21:41:27.689Z,3.72
2022-10-17T21:44:01.318Z,4.40
2022-10-17T21:46:28.939Z,4.35
2022-10-17T21:48:56.197Z,4.03
2022-10-17T21:51:24.535Z,3.72
2022-10-17T21:53:52.668Z,3.50
2022-10-17T21:56:22.078Z,3.67
2022-10-17T21:58:50.048Z,3.55
2022-10-17T22:01:19.462Z,3.55
2022-10-17T22:03:52.425Z,5.40
2022-10-17T22:09:20.742Z,4.90
2022-10-17T22:11:49.136Z,4.47
2022-10-17T22:14:18.584Z,4.72
2022-10-17T22:16:46.536Z,5.43
2022-10-17T22:19:16.031Z,4.85
2022-10-17T22:21:42.693Z,4.60
2022-10-17T22:24:13.859Z,4.60
2022-10-17T22:26:40.828Z,4.40
2022-10-17T22:29:08.500Z,4.70
2022-10-17T22:31:36.284Z,4.85
2022-10-17T22:34:05.117Z,4.88
2022-10-17T22:36:32.529Z,4.97
2022-10-17T22:38:59.128Z,5.18
2022-10-17T22:41:25.686Z,5.03
2022-10-17T22:43:52.268Z,3.78
2022-10-17T22:46:18.910Z,5.45
2022-10-17T22:48:45.482Z,3.85
2022-10-17T22:51:12.270Z,4.57
2022-10-17T22:53:39.201Z,5.00
2022-10-17T22:56:09.379Z,4.68
2022-10-17T22:58:35.916Z,5.68
2022-10-17T23:01:03.948Z,4.75
2022-10-17T23:03:31.419Z,4.53
2022-10-17T23:05:58.740Z,5.43
2022-10-17T23:08:26.262Z,5.40
2022-10-17T23:10:53.179Z,5.00
2022-10-17T23:13:21.404Z,4.32
2022-10-17T23:15:56.319Z,4.20
2022-10-17T23:18:24.613Z,4.80
2022-10-17T23:20:51.673Z,3.72
2022-10-17T23:23:18.947Z,4.55
2022-10-17T23:25:45.956Z,4.53
2022-10-17T23:28:12.685Z,3.67
2022-10-17T23:30:39.979Z,4.03
2022-10-17T23:33:06.969Z,4.53
2022-10-17T23:35:34.182Z,4.90
2022-10-17T23:38:00.679Z,4.20
2022-10-17T23:40:28.070Z,3.85
2022-10-17T23:42:56.216Z,4.05
2022-10-17T23:45:22.895Z,3.47
2022-10-17T23:47:49.547Z,4.03
2022-10-17T23:50:16.464Z,3.70
2022-10-17T23:52:43.505Z,3.92
2022-10-17T23:55:10.723Z,4.25
2022-10-17T23:57:37.239Z,4.57
